sensor_id;sensor_type;location;lat;lon;timestamp;P1;durP1;ratioP1;P2;durP2;ratioP2
8476;SDS011;4275;42.854;23.222;2023-07-29T00:03:57;15.07;;;14.57;;
8476;SDS011;4275;42.854;23.222;2023-07-29T00:06:29;14.68;;;14.18;;
8476;SDS011;4275;42.854;23.222;2023-07-29T00:09:18;14.43;;;13.93;;
8476;SDS011;4275;42.854;23.222;2023-07-29T00:15:37;14.60;;;14.10;;
8476;SDS011;4275;42.854;23.222;2023-07-29T00:18:15;14.57;;;14.07;;
8476;SDS011;4275;42.854;23.222;2023-07-29T00:21:02;14.40;;;13.90;;
8476;SDS011;4275;42.854;23.222;2023-07-29T00:23:45;14.15;;;13.65;;
8476;SDS011;4275;42.854;23.222;2023-07-29T00:26:39;13.98;;;13.57;;
8476;SDS011;4275;42.854;23.222;2023-07-29T00:29:06;14.30;;;13.80;;
8476;SDS011;4275;42.854;23.222;2023-07-29T00:31:33;13.95;;;13.55;;
8476;SDS011;4275;42.854;23.222;2023-07-29T00:34:00;13.93;;;13.50;;
8476;SDS011;4275;42.854;23.222;2023-07-29T00:36:29;13.65;;;13.25;;
8476;SDS011;4275;42.854;23.222;2023-07-29T00:38:56;13.60;;;13.20;;
8476;SDS011;4275;42.854;23.222;2023-07-29T00:41:23;13.60;;;13.20;;
8476;SDS011;4275;42.854;23.222;2023-07-29T00:43:51;13.50;;;13.10;;
8476;SDS011;4275;42.854;23.222;2023-07-29T00:46:18;13.52;;;13.13;;
8476;SDS011;4275;42.854;23.222;2023-07-29T00:48:46;13.27;;;12.88;;
8476;SDS011;4275;42.854;23.222;2023-07-29T00:51:13;13.20;;;12.80;;
8476;SDS011;4275;42.854;23.222;2023-07-29T00:53:42;12.55;;;12.15;;
8476;SDS011;4275;42.854;23.222;2023-07-29T01:05:59;13.00;;;12.60;;
8476;SDS011;4275;42.854;23.222;2023-07-29T01:08:37;13.10;;;12.70;;
8476;SDS011;4275;42.854;23.222;2023-07-29T01:11:16;13.02;;;12.63;;
8476;SDS011;4275;42.854;23.222;2023-07-29T01:17:35;12.90;;;12.50;;
8476;SDS011;4275;42.854;23.222;2023-07-29T01:20:08;12.85;;;12.45;;
8476;SDS011;4275;42.854;23.222;2023-07-29T01:22:37;12.80;;;12.40;;
8476;SDS011;4275;42.854;23.222;2023-07-29T01:25:07;12.80;;;12.40;;
8476;SDS011;4275;42.854;23.222;2023-07-29T01:27:34;12.65;;;12.25;;
8476;SDS011;4275;42.854;23.222;2023-07-29T01:30:02;12.50;;;12.10;;
8476;SDS011;4275;42.854;23.222;2023-07-29T01:32:32;12.90;;;12.50;;
8476;SDS011;4275;42.854;23.222;2023-07-29T01:35:09;13.02;;;12.63;;
8476;SDS011;4275;42.854;23.222;2023-07-29T01:37:41;12.85;;;12.45;;
8476;SDS011;4275;42.854;23.222;2023-07-29T01:40:12;12.90;;;12.50;;
8476;SDS011;4275;42.854;23.222;2023-07-29T01:42:40;12.48;;;12.07;;
8476;SDS011;4275;42.854;23.222;2023-07-29T01:45:07;12.75;;;12.35;;
8476;SDS011;4275;42.854;23.222;2023-07-29T01:47:35;12.70;;;12.30;;
8476;SDS011;4275;42.854;23.222;2023-07-29T01:50:06;12.75;;;12.35;;
8476;SDS011;4275;42.854;23.222;2023-07-29T01:52:34;12.27;;;11.88;;
8476;SDS011;4275;42.854;23.222;2023-07-29T01:55:01;11.90;;;11.50;;
8476;SDS011;4275;42.854;23.222;2023-07-29T01:57:29;11.60;;;11.30;;
8476;SDS011;4275;42.854;23.222;2023-07-29T01:59:56;11.00;;;10.70;;
8476;SDS011;4275;42.854;23.222;2023-07-29T02:02:23;11.10;;;10.80;;
8476;SDS011;4275;42.854;23.222;2023-07-29T02:04:50;12.02;;;11.63;;
8476;SDS011;4275;42.854;23.222;2023-07-29T02:07:17;10.90;;;10.60;;
8476;SDS011;4275;42.854;23.222;2023-07-29T02:09:45;10.90;;;10.60;;
8476;SDS011;4275;42.854;23.222;2023-07-29T02:12:12;11.15;;;10.85;;
8476;SDS011;4275;42.854;23.222;2023-07-29T02:14:40;11.05;;;10.75;;
8476;SDS011;4275;42.854;23.222;2023-07-29T02:17:07;10.68;;;10.38;;
8476;SDS011;4275;42.854;23.222;2023-07-29T02:19:35;11.00;;;10.70;;
8476;SDS011;4275;42.854;23.222;2023-07-29T02:22:02;10.90;;;10.60;;
8476;SDS011;4275;42.854;23.222;2023-07-29T02:24:29;10.45;;;10.15;;
8476;SDS011;4275;42.854;23.222;2023-07-29T02:26:56;10.40;;;10.10;;
8476;SDS011;4275;42.854;23.222;2023-07-29T02:29:23;9.93;;;9.63;;
8476;SDS011;4275;42.854;23.222;2023-07-29T02:31:52;9.90;;;9.60;;
8476;SDS011;4275;42.854;23.222;2023-07-29T02:34:19;10.10;;;9.80;;
8476;SDS011;4275;42.854;23.222;2023-07-29T02:36:46;10.35;;;10.05;;
8476;SDS011;4275;42.854;23.222;2023-07-29T02:39:13;9.60;;;9.30;;
8476;SDS011;4275;42.854;23.222;2023-07-29T02:41:40;9.70;;;9.40;;
8476;SDS011;4275;42.854;23.222;2023-07-29T02:44:07;9.07;;;8.88;;
8476;SDS011;4275;42.854;23.222;2023-07-29T02:46:34;9.30;;;9.00;;
8476;SDS011;4275;42.854;23.222;2023-07-29T02:49:03;9.15;;;8.95;;
8476;SDS011;4275;42.854;23.222;2023-07-29T02:51:30;9.15;;;8.95;;
8476;SDS011;4275;42.854;23.222;2023-07-29T02:53:57;8.98;;;8.77;;
8476;SDS011;4275;42.854;23.222;2023-07-29T02:56:24;8.70;;;8.50;;
8476;SDS011;4275;42.854;23.222;2023-07-29T02:58:51;8.85;;;8.65;;
8476;SDS011;4275;42.854;23.222;2023-07-29T03:01:18;8.80;;;8.60;;
8476;SDS011;4275;42.854;23.222;2023-07-29T03:03:45;8.80;;;8.60;;
8476;SDS011;4275;42.854;23.222;2023-07-29T03:06:13;8.80;;;8.60;;
8476;SDS011;4275;42.854;23.222;2023-07-29T03:08:41;8.45;;;8.25;;
8476;SDS011;4275;42.854;23.222;2023-07-29T03:11:08;8.48;;;8.27;;
8476;SDS011;4275;42.854;23.222;2023-07-29T03:13:36;8.80;;;8.60;;
8476;SDS011;4275;42.854;23.222;2023-07-29T03:16:04;9.38;;;9.13;;
8476;SDS011;4275;42.854;23.222;2023-07-29T03:18:32;9.25;;;9.05;;
8476;SDS011;4275;42.854;23.222;2023-07-29T03:20:59;8.80;;;8.60;;
8476;SDS011;4275;42.854;23.222;2023-07-29T03:23:28;8.75;;;8.55;;
8476;SDS011;4275;42.854;23.222;2023-07-29T03:25:56;9.10;;;8.90;;
8476;SDS011;4275;42.854;23.222;2023-07-29T03:28:23;9.10;;;8.90;;
8476;SDS011;4275;42.854;23.222;2023-07-29T03:43:54;8.50;;;8.30;;
8476;SDS011;4275;42.854;23.222;2023-07-29T04:17:10;17.48;;;16.77;;
8476;SDS011;4275;42.854;23.222;2023-07-29T04:19:38;17.75;;;17.05;;
8476;SDS011;4275;42.854;23.222;2023-07-29T04:22:05;18.70;;;18.00;;
8476;SDS011;4275;42.854;23.222;2023-07-29T04:27:48;18.02;;;17.33;;
8476;SDS011;4275;42.854;23.222;2023-07-29T04:30:15;19.58;;;18.77;;
8476;SDS011;4275;42.854;23.222;2023-07-29T04:32:44;19.35;;;18.55;;
8476;SDS011;4275;42.854;23.222;2023-07-29T04:41:36;18.90;;;18.10;;
8476;SDS011;4275;42.854;23.222;2023-07-29T04:50:29;18.48;;;17.67;;
8476;SDS011;4275;42.854;23.222;2023-07-29T04:59:34;19.30;;;18.50;;
8476;SDS011;4275;42.854;23.222;2023-07-29T05:02:01;19.20;;;18.40;;
8476;SDS011;4275;42.854;23.222;2023-07-29T05:04:28;19.20;;;18.40;;
8476;SDS011;4275;42.854;23.222;2023-07-29T05:06:56;19.45;;;18.65;;
8476;SDS011;4275;42.854;23.222;2023-07-29T05:09:23;19.42;;;18.63;;
8476;SDS011;4275;42.854;23.222;2023-07-29T05:11:51;19.13;;;18.33;;
8476;SDS011;4275;42.854;23.222;2023-07-29T05:14:18;18.90;;;18.10;;
8476;SDS011;4275;42.854;23.222;2023-07-29T05:16:44;18.38;;;17.58;;
8476;SDS011;4275;42.854;23.222;2023-07-29T05:19:13;19.08;;;18.27;;
8476;SDS011;4275;42.854;23.222;2023-07-29T05:21:40;18.88;;;18.08;;
8476;SDS011;4275;42.854;23.222;2023-07-29T05:24:08;19.23;;;18.42;;
8476;SDS011;4275;42.854;23.222;2023-07-29T05:26:35;18.55;;;17.85;;
8476;SDS011;4275;42.854;23.222;2023-07-29T05:29:02;18.88;;;18.08;;
8476;SDS011;4275;42.854;23.222;2023-07-29T05:31:30;18.90;;;18.10;;
8476;SDS011;4275;42.854;23.222;2023-07-29T05:33:57;18.70;;;17.90;;
8476;SDS011;4275;42.854;23.222;2023-07-29T05:36:25;19.08;;;18.27;;
8476;SDS011;4275;42.854;23.222;2023-07-29T05:38:52;18.55;;;17.85;;
8476;SDS011;4275;42.854;23.222;2023-07-29T05:41:21;17.95;;;17.25;;
8476;SDS011;4275;42.854;23.222;2023-07-29T05:43:48;18.85;;;18.05;;
8476;SDS011;4275;42.854;23.222;2023-07-29T05:46:15;18.10;;;17.40;;
8476;SDS011;4275;42.854;23.222;2023-07-29T05:48:42;18.92;;;18.23;;
8476;SDS011;4275;42.854;23.222;2023-07-29T05:51:09;18.58;;;17.88;;
8476;SDS011;4275;42.854;23.222;2023-07-29T05:53:36;18.50;;;17.80;;
8476;SDS011;4275;42.854;23.222;2023-07-29T05:56:03;18.70;;;18.00;;
8476;SDS011;4275;42.854;23.222;2023-07-29T05:58:31;18.92;;;18.15;;
8476;SDS011;4275;42.854;23.222;2023-07-29T06:00:58;18.98;;;18.17;;
8476;SDS011;4275;42.854;23.222;2023-07-29T06:03:25;18.17;;;17.48;;
8476;SDS011;4275;42.854;23.222;2023-07-29T06:05:52;16.13;;;15.52;;
8476;SDS011;4275;42.854;23.222;2023-07-29T06:08:20;17.98;;;17.27;;
8476;SDS011;4275;42.854;23.222;2023-07-29T06:10:47;18.20;;;17.50;;
8476;SDS011;4275;42.854;23.222;2023-07-29T06:13:14;17.60;;;16.90;;
8476;SDS011;4275;42.854;23.222;2023-07-29T06:15:42;17.30;;;16.60;;
8476;SDS011;4275;42.854;23.222;2023-07-29T06:18:09;16.70;;;16.00;;
8476;SDS011;4275;42.854;23.222;2023-07-29T06:20:36;17.50;;;16.80;;
8476;SDS011;4275;42.854;23.222;2023-07-29T06:23:04;17.75;;;17.05;;
8476;SDS011;4275;42.854;23.222;2023-07-29T06:25:31;18.13;;;17.42;;
8476;SDS011;4275;42.854;23.222;2023-07-29T06:27:58;18.13;;;17.42;;
8476;SDS011;4275;42.854;23.222;2023-07-29T06:30:25;18.35;;;17.65;;
8476;SDS011;4275;42.854;23.222;2023-07-29T06:32:53;18.00;;;17.30;;
8476;SDS011;4275;42.854;23.222;2023-07-29T06:35:20;18.60;;;17.80;;
8476;SDS011;4275;42.854;23.222;2023-07-29T06:37:47;18.63;;;17.83;;
8476;SDS011;4275;42.854;23.222;2023-07-29T06:40:14;18.00;;;17.30;;
8476;SDS011;4275;42.854;23.222;2023-07-29T06:42:41;18.50;;;17.73;;
8476;SDS011;4275;42.854;23.222;2023-07-29T06:45:09;18.83;;;18.02;;
8476;SDS011;4275;42.854;23.222;2023-07-29T06:47:36;18.63;;;17.83;;
8476;SDS011;4275;42.854;23.222;2023-07-29T06:50:05;18.63;;;17.83;;
8476;SDS011;4275;42.854;23.222;2023-07-29T06:52:32;18.70;;;17.90;;
8476;SDS011;4275;42.854;23.222;2023-07-29T06:54:59;18.38;;;17.58;;
8476;SDS011;4275;42.854;23.222;2023-07-29T06:57:26;19.30;;;18.50;;
8476;SDS011;4275;42.854;23.222;2023-07-29T06:59:53;19.17;;;18.33;;
8476;SDS011;4275;42.854;23.222;2023-07-29T07:02:20;19.10;;;18.30;;
8476;SDS011;4275;42.854;23.222;2023-07-29T07:04:47;18.63;;;17.83;;
8476;SDS011;4275;42.854;23.222;2023-07-29T07:07:16;18.70;;;17.90;;
8476;SDS011;4275;42.854;23.222;2023-07-29T07:09:43;18.92;;;18.13;;
8476;SDS011;4275;42.854;23.222;2023-07-29T07:12:10;18.52;;;17.73;;
8476;SDS011;4275;42.854;23.222;2023-07-29T07:14:37;19.63;;;18.73;;
8476;SDS011;4275;42.854;23.222;2023-07-29T07:17:04;19.17;;;18.33;;
8476;SDS011;4275;42.854;23.222;2023-07-29T07:19:31;18.70;;;17.90;;
8476;SDS011;4275;42.854;23.222;2023-07-29T07:21:58;18.90;;;18.10;;
8476;SDS011;4275;42.854;23.222;2023-07-29T07:24:27;18.70;;;17.90;;
8476;SDS011;4275;42.854;23.222;2023-07-29T07:26:54;19.50;;;18.60;;
8476;SDS011;4275;42.854;23.222;2023-07-29T07:29:21;18.15;;;17.35;;
8476;SDS011;4275;42.854;23.222;2023-07-29T07:31:50;18.05;;;17.25;;
8476;SDS011;4275;42.854;23.222;2023-07-29T07:34:18;18.20;;;17.40;;
8476;SDS011;4275;42.854;23.222;2023-07-29T07:36:45;18.52;;;17.63;;
8476;SDS011;4275;42.854;23.222;2023-07-29T07:39:12;18.25;;;17.45;;
8476;SDS011;4275;42.854;23.222;2023-07-29T07:41:41;18.38;;;17.58;;
8476;SDS011;4275;42.854;23.222;2023-07-29T07:44:08;17.98;;;17.17;;
8476;SDS011;4275;42.854;23.222;2023-07-29T07:46:36;18.90;;;18.10;;
8476;SDS011;4275;42.854;23.222;2023-07-29T07:49:03;18.75;;;17.95;;
8476;SDS011;4275;42.854;23.222;2023-07-29T07:51:30;18.40;;;17.60;;
8476;SDS011;4275;42.854;23.222;2023-07-29T07:53:57;18.60;;;17.80;;
8476;SDS011;4275;42.854;23.222;2023-07-29T07:56:24;18.85;;;17.95;;
8476;SDS011;4275;42.854;23.222;2023-07-29T07:58:52;18.77;;;17.88;;
8476;SDS011;4275;42.854;23.222;2023-07-29T08:01:19;18.67;;;17.80;;
8476;SDS011;4275;42.854;23.222;2023-07-29T08:03:46;19.38;;;18.48;;
8476;SDS011;4275;42.854;23.222;2023-07-29T08:06:13;18.17;;;17.38;;
8476;SDS011;4275;42.854;23.222;2023-07-29T08:08:44;17.88;;;17.08;;
8476;SDS011;4275;42.854;23.222;2023-07-29T08:11:11;17.70;;;16.90;;
8476;SDS011;4275;42.854;23.222;2023-07-29T08:13:38;17.90;;;17.10;;
8476;SDS011;4275;42.854;23.222;2023-07-29T08:16:06;18.17;;;17.30;;
8476;SDS011;4275;42.854;23.222;2023-07-29T08:18:33;18.48;;;17.58;;
8476;SDS011;4275;42.854;23.222;2023-07-29T08:21:00;18.60;;;17.70;;
8476;SDS011;4275;42.854;23.222;2023-07-29T08:23:29;18.80;;;17.90;;
8476;SDS011;4275;42.854;23.222;2023-07-29T08:25:57;18.52;;;17.63;;
8476;SDS011;4275;42.854;23.222;2023-07-29T08:28:26;17.98;;;17.17;;
8476;SDS011;4275;42.854;23.222;2023-07-29T08:30:54;17.65;;;16.85;;
8476;SDS011;4275;42.854;23.222;2023-07-29T08:33:22;17.65;;;16.85;;
8476;SDS011;4275;42.854;23.222;2023-07-29T08:35:49;18.17;;;17.27;;
8476;SDS011;4275;42.854;23.222;2023-07-29T08:38:16;18.00;;;17.10;;
8476;SDS011;4275;42.854;23.222;2023-07-29T08:40:45;18.50;;;17.60;;
8476;SDS011;4275;42.854;23.222;2023-07-29T08:43:16;18.27;;;17.38;;
8476;SDS011;4275;42.854;23.222;2023-07-29T08:45:46;18.55;;;17.55;;
8476;SDS011;4275;42.854;23.222;2023-07-29T08:48:14;18.25;;;17.35;;
8476;SDS011;4275;42.854;23.222;2023-07-29T08:50:47;18.35;;;17.45;;
8476;SDS011;4275;42.854;23.222;2023-07-29T08:53:16;18.50;;;17.60;;
8476;SDS011;4275;42.854;23.222;2023-07-29T08:55:44;18.55;;;17.60;;
8476;SDS011;4275;42.854;23.222;2023-07-29T08:58:11;18.75;;;17.75;;
8476;SDS011;4275;42.854;23.222;2023-07-29T09:00:38;18.40;;;17.50;;
8476;SDS011;4275;42.854;23.222;2023-07-29T09:03:06;18.30;;;17.40;;
8476;SDS011;4275;42.854;23.222;2023-07-29T09:05:33;18.17;;;17.27;;
8476;SDS011;4275;42.854;23.222;2023-07-29T09:08:02;18.08;;;17.17;;
8476;SDS011;4275;42.854;23.222;2023-07-29T09:10:30;18.38;;;17.48;;
8476;SDS011;4275;42.854;23.222;2023-07-29T09:13:02;18.70;;;17.70;;
8476;SDS011;4275;42.854;23.222;2023-07-29T09:15:30;18.55;;;17.65;;
8476;SDS011;4275;42.854;23.222;2023-07-29T09:17:58;18.38;;;17.48;;
8476;SDS011;4275;42.854;23.222;2023-07-29T09:20:26;18.33;;;17.42;;
8476;SDS011;4275;42.854;23.222;2023-07-29T09:22:53;18.15;;;17.25;;
8476;SDS011;4275;42.854;23.222;2023-07-29T09:25:26;18.00;;;17.10;;
8476;SDS011;4275;42.854;23.222;2023-07-29T09:27:58;18.80;;;17.80;;
8476;SDS011;4275;42.854;23.222;2023-07-29T09:30:26;17.98;;;17.08;;
8476;SDS011;4275;42.854;23.222;2023-07-29T09:32:54;17.67;;;16.88;;
8476;SDS011;4275;42.854;23.222;2023-07-29T09:35:22;18.27;;;17.38;;
8476;SDS011;4275;42.854;23.222;2023-07-29T09:37:50;18.08;;;17.17;;
8476;SDS011;4275;42.854;23.222;2023-07-29T09:40:17;18.33;;;17.42;;
8476;SDS011;4275;42.854;23.222;2023-07-29T09:42:49;18.13;;;17.23;;
8476;SDS011;4275;42.854;23.222;2023-07-29T09:45:21;18.33;;;17.42;;
8476;SDS011;4275;42.854;23.222;2023-07-29T09:47:48;18.80;;;17.88;;
8476;SDS011;4275;42.854;23.222;2023-07-29T09:50:16;18.20;;;17.30;;
8476;SDS011;4275;42.854;23.222;2023-07-29T09:52:43;18.20;;;17.30;;
8476;SDS011;4275;42.854;23.222;2023-07-29T09:55:11;18.70;;;17.70;;
8476;SDS011;4275;42.854;23.222;2023-07-29T09:57:39;18.13;;;17.13;;
8476;SDS011;4275;42.854;23.222;2023-07-29T10:00:10;17.77;;;16.88;;
8476;SDS011;4275;42.854;23.222;2023-07-29T10:02:38;18.30;;;17.40;;
8476;SDS011;4275;42.854;23.222;2023-07-29T10:05:06;18.08;;;17.17;;
8476;SDS011;4275;42.854;23.222;2023-07-29T10:07:34;17.90;;;17.00;;
8476;SDS011;4275;42.854;23.222;2023-07-29T10:10:03;17.60;;;16.70;;
8476;SDS011;4275;42.854;23.222;2023-07-29T10:12:32;17.63;;;16.73;;
8476;SDS011;4275;42.854;23.222;2023-07-29T10:15:00;17.92;;;16.98;;
8476;SDS011;4275;42.854;23.222;2023-07-29T10:17:30;17.90;;;17.00;;
8476;SDS011;4275;42.854;23.222;2023-07-29T10:20:01;18.35;;;17.35;;
8476;SDS011;4275;42.854;23.222;2023-07-29T10:22:33;17.70;;;16.80;;
8476;SDS011;4275;42.854;23.222;2023-07-29T10:25:03;18.05;;;17.05;;
8476;SDS011;4275;42.854;23.222;2023-07-29T10:27:35;17.88;;;16.98;;
8476;SDS011;4275;42.854;23.222;2023-07-29T10:30:08;18.05;;;17.05;;
8476;SDS011;4275;42.854;23.222;2023-07-29T10:32:39;18.17;;;17.17;;
8476;SDS011;4275;42.854;23.222;2023-07-29T10:35:09;18.27;;;17.38;;
8476;SDS011;4275;42.854;23.222;2023-07-29T10:37:36;18.40;;;17.40;;
8476;SDS011;4275;42.854;23.222;2023-07-29T10:40:05;17.77;;;16.88;;
8476;SDS011;4275;42.854;23.222;2023-07-29T10:42:34;18.27;;;17.27;;
8476;SDS011;4275;42.854;23.222;2023-07-29T10:45:17;17.50;;;16.70;;
8476;SDS011;4275;42.854;23.222;2023-07-29T10:47:47;17.88;;;16.98;;
8476;SDS011;4275;42.854;23.222;2023-07-29T10:50:17;17.20;;;16.40;;
8476;SDS011;4275;42.854;23.222;2023-07-29T10:52:48;18.33;;;17.42;;
8476;SDS011;4275;42.854;23.222;2023-07-29T10:55:24;17.88;;;16.98;;
8476;SDS011;4275;42.854;23.222;2023-07-29T10:57:53;17.48;;;16.67;;
8476;SDS011;4275;42.854;23.222;2023-07-29T11:00:31;17.52;;;16.73;;
8476;SDS011;4275;42.854;23.222;2023-07-29T11:03:00;17.92;;;17.02;;
8476;SDS011;4275;42.854;23.222;2023-07-29T11:05:41;17.85;;;16.95;;
8476;SDS011;4275;42.854;23.222;2023-07-29T11:08:19;18.20;;;17.20;;
8476;SDS011;4275;42.854;23.222;2023-07-29T11:11:01;17.67;;;16.77;;
8476;SDS011;4275;42.854;23.222;2023-07-29T11:13:32;18.77;;;17.77;;
8476;SDS011;4275;42.854;23.222;2023-07-29T11:16:01;18.52;;;17.52;;
8476;SDS011;4275;42.854;23.222;2023-07-29T11:18:30;18.50;;;17.50;;
8476;SDS011;4275;42.854;23.222;2023-07-29T11:20:59;18.08;;;17.08;;
8476;SDS011;4275;42.854;23.222;2023-07-29T11:23:30;18.27;;;17.27;;
8476;SDS011;4275;42.854;23.222;2023-07-29T11:25:58;18.95;;;17.95;;
8476;SDS011;4275;42.854;23.222;2023-07-29T11:28:25;18.63;;;17.63;;
8476;SDS011;4275;42.854;23.222;2023-07-29T11:30:53;18.40;;;17.40;;
8476;SDS011;4275;42.854;23.222;2023-07-29T11:33:22;18.45;;;17.45;;
8476;SDS011;4275;42.854;23.222;2023-07-29T11:35:52;18.38;;;17.38;;
8476;SDS011;4275;42.854;23.222;2023-07-29T11:38:19;18.20;;;17.30;;
8476;SDS011;4275;42.854;23.222;2023-07-29T11:40:53;18.17;;;17.27;;
8476;SDS011;4275;42.854;23.222;2023-07-29T11:43:22;17.85;;;16.95;;
8476;SDS011;4275;42.854;23.222;2023-07-29T11:45:49;17.60;;;16.73;;
8476;SDS011;4275;42.854;23.222;2023-07-29T11:48:17;17.92;;;17.02;;
8476;SDS011;4275;42.854;23.222;2023-07-29T11:50:44;17.98;;;17.08;;
8476;SDS011;4275;42.854;23.222;2023-07-29T11:53:13;18.02;;;17.13;;
8476;SDS011;4275;42.854;23.222;2023-07-29T11:55:40;18.35;;;17.45;;
8476;SDS011;4275;42.854;23.222;2023-07-29T11:58:07;18.33;;;17.42;;
8476;SDS011;4275;42.854;23.222;2023-07-29T12:00:34;18.75;;;17.75;;
8476;SDS011;4275;42.854;23.222;2023-07-29T12:03:04;18.08;;;17.17;;
8476;SDS011;4275;42.854;23.222;2023-07-29T12:05:31;17.98;;;17.08;;
8476;SDS011;4275;42.854;23.222;2023-07-29T12:07:58;18.02;;;17.13;;
8476;SDS011;4275;42.854;23.222;2023-07-29T12:10:27;18.23;;;17.33;;
8476;SDS011;4275;42.854;23.222;2023-07-29T12:12:54;18.00;;;17.10;;
8476;SDS011;4275;42.854;23.222;2023-07-29T12:15:24;18.30;;;17.40;;
8476;SDS011;4275;42.854;23.222;2023-07-29T12:17:54;18.23;;;17.33;;
8476;SDS011;4275;42.854;23.222;2023-07-29T12:20:22;18.35;;;17.40;;
8476;SDS011;4275;42.854;23.222;2023-07-29T12:22:53;18.42;;;17.48;;
8476;SDS011;4275;42.854;23.222;2023-07-29T12:25:20;18.63;;;17.63;;
8476;SDS011;4275;42.854;23.222;2023-07-29T12:27:49;18.23;;;17.33;;
8476;SDS011;4275;42.854;23.222;2023-07-29T12:30:19;17.45;;;16.58;;
8476;SDS011;4275;42.854;23.222;2023-07-29T12:32:47;18.20;;;17.30;;
8476;SDS011;4275;42.854;23.222;2023-07-29T12:35:14;18.02;;;17.13;;
8476;SDS011;4275;42.854;23.222;2023-07-29T12:37:42;17.98;;;17.08;;
8476;SDS011;4275;42.854;23.222;2023-07-29T12:40:20;18.15;;;17.15;;
8476;SDS011;4275;42.854;23.222;2023-07-29T12:42:50;18.10;;;17.20;;
8476;SDS011;4275;42.854;23.222;2023-07-29T12:45:17;18.48;;;17.48;;
8476;SDS011;4275;42.854;23.222;2023-07-29T12:47:44;18.55;;;17.55;;
8476;SDS011;4275;42.854;23.222;2023-07-29T12:50:11;18.42;;;17.42;;
8476;SDS011;4275;42.854;23.222;2023-07-29T12:52:39;18.50;;;17.50;;
8476;SDS011;4275;42.854;23.222;2023-07-29T12:55:06;18.38;;;17.38;;
8476;SDS011;4275;42.854;23.222;2023-07-29T12:57:38;18.95;;;17.95;;
8476;SDS011;4275;42.854;23.222;2023-07-29T13:00:08;18.65;;;17.65;;
8476;SDS011;4275;42.854;23.222;2023-07-29T13:02:37;18.73;;;17.63;;
8476;SDS011;4275;42.854;23.222;2023-07-29T13:05:04;19.20;;;18.20;;
8476;SDS011;4275;42.854;23.222;2023-07-29T13:07:32;18.50;;;17.50;;
8476;SDS011;4275;42.854;23.222;2023-07-29T13:09:59;18.30;;;17.30;;
8476;SDS011;4275;42.854;23.222;2023-07-29T13:12:27;18.88;;;17.83;;
8476;SDS011;4275;42.854;23.222;2023-07-29T13:14:54;18.58;;;17.58;;
8476;SDS011;4275;42.854;23.222;2023-07-29T13:17:22;18.45;;;17.45;;
8476;SDS011;4275;42.854;23.222;2023-07-29T13:19:50;18.17;;;17.17;;
8476;SDS011;4275;42.854;23.222;2023-07-29T13:22:17;18.38;;;17.38;;
8476;SDS011;4275;42.854;23.222;2023-07-29T13:24:44;18.65;;;17.65;;
8476;SDS011;4275;42.854;23.222;2023-07-29T13:27:11;18.65;;;17.65;;
8476;SDS011;4275;42.854;23.222;2023-07-29T13:29:38;18.58;;;17.58;;
8476;SDS011;4275;42.854;23.222;2023-07-29T13:32:07;17.95;;;17.05;;
8476;SDS011;4275;42.854;23.222;2023-07-29T13:34:36;18.48;;;17.48;;
8476;SDS011;4275;42.854;23.222;2023-07-29T13:37:05;18.15;;;17.15;;
8476;SDS011;4275;42.854;23.222;2023-07-29T13:39:32;18.35;;;17.35;;
8476;SDS011;4275;42.854;23.222;2023-07-29T13:41:59;18.25;;;17.25;;
8476;SDS011;4275;42.854;23.222;2023-07-29T13:44:26;17.63;;;16.73;;
8476;SDS011;4275;42.854;23.222;2023-07-29T13:46:53;18.30;;;17.40;;
8476;SDS011;4275;42.854;23.222;2023-07-29T13:49:20;18.40;;;17.40;;
8476;SDS011;4275;42.854;23.222;2023-07-29T13:51:48;18.42;;;17.42;;
8476;SDS011;4275;42.854;23.222;2023-07-29T13:54:15;18.52;;;17.52;;
8476;SDS011;4275;42.854;23.222;2023-07-29T13:56:42;18.52;;;17.52;;
8476;SDS011;4275;42.854;23.222;2023-07-29T13:59:09;18.55;;;17.55;;
8476;SDS011;4275;42.854;23.222;2023-07-29T14:01:36;18.33;;;17.33;;
8476;SDS011;4275;42.854;23.222;2023-07-29T14:04:03;18.17;;;17.17;;
8476;SDS011;4275;42.854;23.222;2023-07-29T14:06:30;18.58;;;17.58;;
8476;SDS011;4275;42.854;23.222;2023-07-29T14:08:59;18.52;;;17.52;;
8476;SDS011;4275;42.854;23.222;2023-07-29T14:11:26;18.50;;;17.50;;
8476;SDS011;4275;42.854;23.222;2023-07-29T14:13:53;18.40;;;17.40;;
8476;SDS011;4275;42.854;23.222;2023-07-29T14:16:20;18.73;;;17.73;;
8476;SDS011;4275;42.854;23.222;2023-07-29T14:18:47;18.48;;;17.48;;
8476;SDS011;4275;42.854;23.222;2023-07-29T14:21:14;18.65;;;17.65;;
8476;SDS011;4275;42.854;23.222;2023-07-29T14:23:41;18.10;;;17.20;;
8476;SDS011;4275;42.854;23.222;2023-07-29T14:26:09;18.02;;;17.08;;
8476;SDS011;4275;42.854;23.222;2023-07-29T14:28:36;18.98;;;17.98;;
8476;SDS011;4275;42.854;23.222;2023-07-29T14:31:03;18.67;;;17.67;;
8476;SDS011;4275;42.854;23.222;2023-07-29T14:33:30;18.58;;;17.58;;
8476;SDS011;4275;42.854;23.222;2023-07-29T14:35:57;19.08;;;18.08;;
8476;SDS011;4275;42.854;23.222;2023-07-29T14:38:24;18.92;;;17.92;;
8476;SDS011;4275;42.854;23.222;2023-07-29T14:40:51;18.85;;;17.85;;
8476;SDS011;4275;42.854;23.222;2023-07-29T14:43:21;18.50;;;17.50;;
8476;SDS011;4275;42.854;23.222;2023-07-29T14:45:48;18.65;;;17.65;;
8476;SDS011;4275;42.854;23.222;2023-07-29T14:48:16;18.50;;;17.50;;
8476;SDS011;4275;42.854;23.222;2023-07-29T14:50:43;18.27;;;17.27;;
8476;SDS011;4275;42.854;23.222;2023-07-29T14:53:10;18.65;;;17.65;;
8476;SDS011;4275;42.854;23.222;2023-07-29T14:55:37;17.88;;;16.88;;
8476;SDS011;4275;42.854;23.222;2023-07-29T14:58:04;18.45;;;17.45;;
8476;SDS011;4275;42.854;23.222;2023-07-29T15:00:33;18.42;;;17.42;;
8476;SDS011;4275;42.854;23.222;2023-07-29T15:02:59;18.67;;;17.67;;
8476;SDS011;4275;42.854;23.222;2023-07-29T15:05:26;18.70;;;17.70;;
8476;SDS011;4275;42.854;23.222;2023-07-29T15:07:53;18.52;;;17.52;;
8476;SDS011;4275;42.854;23.222;2023-07-29T15:10:20;18.23;;;17.23;;
8476;SDS011;4275;42.854;23.222;2023-07-29T15:12:47;18.15;;;17.15;;
8476;SDS011;4275;42.854;23.222;2023-07-29T15:15:14;17.83;;;16.92;;
8476;SDS011;4275;42.854;23.222;2023-07-29T15:17:43;18.45;;;17.45;;
8476;SDS011;4275;42.854;23.222;2023-07-29T15:20:10;18.67;;;17.67;;
8476;SDS011;4275;42.854;23.222;2023-07-29T15:22:38;18.52;;;17.52;;
8476;SDS011;4275;42.854;23.222;2023-07-29T15:25:05;18.35;;;17.35;;
8476;SDS011;4275;42.854;23.222;2023-07-29T15:27:34;18.48;;;17.48;;
8476;SDS011;4275;42.854;23.222;2023-07-29T15:30:02;18.70;;;17.70;;
8476;SDS011;4275;42.854;23.222;2023-07-29T15:32:29;18.73;;;17.73;;
8476;SDS011;4275;42.854;23.222;2023-07-29T15:34:57;18.52;;;17.52;;
8476;SDS011;4275;42.854;23.222;2023-07-29T15:37:25;18.35;;;17.35;;
8476;SDS011;4275;42.854;23.222;2023-07-29T15:39:52;18.08;;;17.08;;
8476;SDS011;4275;42.854;23.222;2023-07-29T15:42:19;18.52;;;17.52;;
8476;SDS011;4275;42.854;23.222;2023-07-29T15:44:46;18.23;;;17.23;;
8476;SDS011;4275;42.854;23.222;2023-07-29T15:47:13;18.42;;;17.42;;
8476;SDS011;4275;42.854;23.222;2023-07-29T15:49:43;18.42;;;17.42;;
8476;SDS011;4275;42.854;23.222;2023-07-29T15:52:12;18.38;;;17.38;;
8476;SDS011;4275;42.854;23.222;2023-07-29T15:54:40;18.50;;;17.50;;
8476;SDS011;4275;42.854;23.222;2023-07-29T15:57:07;18.20;;;17.20;;
8476;SDS011;4275;42.854;23.222;2023-07-29T15:59:34;18.85;;;17.75;;
8476;SDS011;4275;42.854;23.222;2023-07-29T16:02:01;19.08;;;18.08;;
8476;SDS011;4275;42.854;23.222;2023-07-29T16:04:28;18.95;;;17.85;;
8476;SDS011;4275;42.854;23.222;2023-07-29T16:06:55;19.02;;;17.92;;
8476;SDS011;4275;42.854;23.222;2023-07-29T16:09:24;18.90;;;17.80;;